Creston, North Carolina
Current Conditions -  °F | °C
As of 3:35 PM on Wednesday 26 Nov 2014 (Local Time) from KGEV Reporting Station
Overcast Overcast  
Wind Chill: 28°   Ceiling: 1000
Heat Index: 36°   Visibility: 10mi
Dew Point: 33°   Wind: 14mph
Humidity: 87%   Direction: 270°W
Pressure: 29.94"   Gusts: 20mph
Location:  36.43°N, 81.62°W
Report Text: KGEV 262035Z AUTO 27012G17KT 10SM OVC010 02/00 A2994 RMK AO2 T00240004
Loading
Personal Weather Stations






























Interactive Weather Map New forecast layout! Learn more

10-Day Weather Forecast

Advertisements
Track Severe Weather on mobile